createdAt,value
2023-05-05T00:04:50.176Z,74.71
2023-05-05T00:09:51.778Z,75.00
2023-05-05T00:14:53.395Z,74.88
2023-05-05T00:19:54.990Z,74.66
2023-05-05T00:24:56.590Z,75.71
2023-05-05T00:29:58.176Z,75.87
2023-05-05T00:35:00.043Z,76.04
2023-05-05T00:40:01.959Z,76.86
2023-05-05T00:45:04.175Z,76.67
2023-05-05T00:50:09.486Z,77.13
2023-05-05T00:55:11.448Z,76.18
2023-05-05T01:00:13.588Z,76.19
2023-05-05T01:05:16.313Z,76.29
2023-05-05T01:10:54.481Z,76.37
2023-05-05T01:16:07.885Z,76.73
2023-05-05T01:21:27.693Z,76.96
2023-05-05T01:26:52.552Z,76.99
2023-05-05T01:31:57.266Z,77.27
2023-05-05T01:37:08.294Z,77.89
2023-05-05T01:42:15.004Z,78.52
2023-05-05T01:47:19.545Z,78.26
2023-05-05T01:52:22.679Z,79.24
2023-05-05T01:57:26.500Z,80.50
2023-05-05T02:02:28.974Z,82.41
2023-05-05T02:07:33.666Z,82.27
2023-05-05T02:12:37.229Z,81.72
2023-05-05T02:17:42.693Z,82.24
2023-05-05T02:22:44.624Z,81.79
2023-05-05T02:27:48.463Z,80.96
2023-05-05T02:32:58.900Z,81.00
2023-05-05T02:38:05.587Z,80.80
2023-05-05T02:43:18.173Z,80.90
2023-05-05T02:48:21.066Z,82.39
2023-05-05T02:53:27.121Z,82.20
2023-05-05T02:58:46.174Z,83.50
2023-05-05T03:04:14.762Z,83.50
2023-05-05T03:09:27.739Z,82.70
2023-05-05T03:14:38.896Z,82.33
2023-05-05T03:19:43.129Z,82.53
2023-05-05T03:24:49.939Z,85.57
2023-05-05T03:29:52.521Z,86.69
2023-05-05T03:34:54.564Z,88.69
2023-05-05T03:40:01.324Z,89.96
2023-05-05T03:45:03.605Z,89.69
2023-05-05T03:50:06.885Z,91.27
2023-05-05T03:55:10.688Z,88.96
2023-05-05T04:00:12.869Z,89.67
2023-05-05T04:05:17.378Z,87.68
2023-05-05T04:10:19.197Z,88.28
2023-05-05T04:15:21.642Z,87.68
2023-05-05T04:20:23.588Z,85.62
2023-05-05T04:25:25.573Z,85.04
2023-05-05T04:30:27.738Z,85.58
2023-05-05T04:35:29.645Z,83.57
2023-05-05T04:40:32.100Z,81.87
2023-05-05T04:45:34.349Z,78.93
2023-05-05T04:50:37.105Z,77.27
2023-05-05T04:55:39.574Z,76.81
2023-05-05T05:00:41.409Z,76.10
2023-05-05T05:05:43.328Z,73.56
2023-05-05T05:10:45.323Z,73.77
2023-05-05T05:15:47.028Z,72.09
2023-05-05T05:20:48.778Z,70.19
2023-05-05T05:25:51.172Z,68.70
2023-05-05T05:30:55.108Z,67.21
2023-05-05T05:35:58.179Z,66.62
2023-05-05T05:41:05.208Z,64.59
2023-05-05T05:46:09.439Z,63.89
2023-05-05T05:51:13.591Z,63.18
2023-05-05T05:56:15.711Z,62.74
2023-05-05T06:01:17.996Z,64.05
2023-05-05T06:06:20.603Z,63.85
2023-05-05T06:11:22.504Z,64.41
2023-05-05T06:16:24.434Z,63.82
2023-05-05T06:21:27.844Z,66.53
2023-05-05T06:26:31.454Z,68.73
2023-05-05T06:31:33.259Z,68.58
2023-05-05T06:36:35.743Z,66.99
2023-05-05T06:41:37.643Z,67.31
2023-05-05T06:46:39.431Z,67.99
2023-05-05T06:51:42.733Z,69.51
2023-05-05T06:56:44.628Z,68.16
2023-05-05T07:01:46.279Z,67.83
2023-05-05T07:06:47.867Z,66.74
2023-05-05T07:11:49.557Z,67.73
2023-05-05T07:16:51.637Z,68.09
2023-05-05T07:21:53.421Z,66.94
2023-05-05T07:26:55.958Z,67.83
2023-05-05T07:31:58.569Z,67.58
2023-05-05T07:37:00.453Z,65.64
2023-05-05T07:42:02.447Z,64.73
2023-05-05T07:47:04.097Z,65.50
2023-05-05T07:52:05.928Z,66.21
2023-05-05T07:57:07.519Z,65.03
2023-05-05T08:02:15.108Z,62.73
2023-05-05T08:07:17.019Z,61.05
2023-05-05T08:12:19.442Z,61.47
2023-05-05T08:17:21.066Z,58.94
2023-05-05T08:22:22.757Z,58.63
2023-05-05T08:27:24.350Z,59.50
2023-05-05T08:32:27.825Z,57.19
2023-05-05T08:37:31.050Z,55.72
2023-05-05T08:42:38.460Z,54.85
2023-05-05T08:47:42.047Z,55.99
2023-05-05T08:52:50.699Z,55.06
2023-05-05T08:57:57.309Z,54.56
2023-05-05T09:03:01.185Z,53.48
2023-05-05T09:08:05.525Z,52.84
2023-05-05T09:13:07.439Z,53.21
2023-05-05T09:18:09.605Z,52.74
2023-05-05T09:23:16.838Z,51.51
2023-05-05T09:28:18.611Z,51.02
2023-05-05T09:33:30.523Z,50.70
2023-05-05T09:38:32.264Z,50.52
2023-05-05T09:43:51.849Z,48.07
2023-05-05T09:48:53.992Z,47.33
2023-05-05T09:53:55.637Z,47.80
2023-05-05T09:59:11.884Z,46.02
2023-05-05T10:04:42.973Z,45.85
2023-05-05T10:09:44.628Z,45.27
2023-05-05T10:14:46.501Z,43.73
2023-05-05T10:19:52.193Z,45.76
2023-05-05T10:25:01.693Z,45.96
2023-05-05T10:30:07.733Z,43.39
2023-05-05T10:35:11.304Z,44.00
2023-05-05T10:40:14.746Z,43.66
2023-05-05T10:45:16.790Z,43.80
2023-05-05T10:50:31.372Z,44.75
2023-05-05T10:56:02.456Z,45.23
2023-05-05T11:01:06.061Z,43.60
2023-05-05T11:06:07.778Z,42.58
2023-05-05T11:11:10.879Z,42.24
2023-05-05T11:16:45.814Z,41.04
2023-05-05T11:22:00.757Z,43.43
2023-05-05T11:27:03.453Z,42.85
2023-05-05T11:32:13.065Z,42.91
2023-05-05T11:37:16.209Z,43.90
2023-05-05T11:42:25.763Z,44.09
2023-05-05T11:47:29.217Z,43.28
2023-05-05T11:52:30.914Z,42.80
2023-05-05T11:57:32.588Z,41.51
2023-05-05T12:02:34.719Z,43.53
2023-05-05T12:07:36.401Z,42.76
2023-05-05T12:12:40.547Z,41.27
2023-05-05T12:17:46.004Z,43.56
2023-05-05T12:22:48.129Z,43.54
2023-05-05T12:27:53.226Z,43.64
2023-05-05T12:33:07.925Z,44.08
2023-05-05T12:38:09.731Z,43.78
2023-05-05T12:43:44.207Z,41.64
2023-05-05T12:48:48.358Z,43.50
2023-05-05T12:54:08.409Z,43.30
2023-05-05T12:59:22.301Z,43.58
2023-05-05T13:04:25.689Z,44.39
2023-05-05T13:09:35.827Z,44.71
2023-05-05T13:14:39.932Z,45.63
2023-05-05T13:19:46.516Z,44.72
2023-05-05T13:24:52.453Z,44.78
2023-05-05T13:29:54.562Z,46.67
2023-05-05T13:34:56.284Z,45.40
2023-05-05T13:40:00.236Z,45.04
2023-05-05T13:45:01.861Z,46.45
2023-05-05T13:50:03.880Z,46.28
2023-05-05T13:55:06.301Z,46.90
2023-05-05T14:00:09.007Z,46.40
2023-05-05T14:05:10.855Z,46.17
2023-05-05T14:10:13.062Z,46.19
2023-05-05T14:15:14.920Z,46.58
2023-05-05T14:20:16.553Z,45.92
2023-05-05T14:25:18.231Z,46.49
2023-05-05T14:30:19.869Z,47.43
2023-05-05T14:35:21.480Z,47.00
2023-05-05T14:40:23.596Z,45.32
2023-05-05T14:45:26.340Z,46.79
2023-05-05T14:50:28.180Z,47.90
2023-05-05T14:55:29.830Z,47.67
2023-05-05T15:00:31.520Z,47.49
2023-05-05T15:05:33.365Z,47.55
2023-05-05T15:10:34.937Z,47.83
2023-05-05T15:15:36.930Z,47.32
2023-05-05T15:20:38.582Z,47.53
2023-05-05T15:25:40.385Z,48.82
2023-05-05T15:30:41.965Z,48.08
2023-05-05T15:35:43.594Z,48.29
2023-05-05T15:40:47.713Z,47.87
2023-05-05T15:45:51.772Z,48.40
2023-05-05T15:50:53.417Z,48.51
2023-05-05T15:55:55.078Z,48.21
2023-05-05T16:00:56.684Z,49.05
2023-05-05T16:05:58.444Z,49.80
2023-05-05T16:11:00.067Z,49.70
2023-05-05T16:16:01.750Z,50.39
2023-05-05T16:21:03.421Z,51.04
2023-05-05T16:26:05.166Z,51.25
2023-05-05T16:31:06.972Z,49.97
2023-05-05T16:36:12.405Z,51.68
2023-05-05T16:41:14.193Z,51.81
2023-05-05T16:46:16.255Z,52.83
2023-05-05T16:51:18.351Z,52.61
2023-05-05T16:56:21.149Z,53.76
2023-05-05T17:01:22.895Z,53.83
2023-05-05T17:06:24.560Z,54.41
2023-05-05T17:11:26.709Z,53.96
2023-05-05T17:16:28.459Z,54.68
2023-05-05T17:21:30.116Z,54.81
2023-05-05T17:26:31.820Z,55.38
2023-05-05T17:31:33.497Z,56.13
2023-05-05T17:36:35.494Z,55.92
2023-05-05T17:41:37.868Z,57.38
2023-05-05T17:46:40.378Z,57.60
2023-05-05T17:51:41.986Z,58.14
2023-05-05T17:56:43.542Z,58.31
2023-05-05T18:01:45.263Z,58.95
2023-05-05T18:06:47.129Z,60.14
2023-05-05T18:11:52.064Z,60.73
2023-05-05T18:16:54.375Z,61.38
2023-05-05T18:21:57.450Z,62.13
2023-05-05T18:26:59.096Z,62.82
2023-05-05T18:32:01.932Z,63.44
2023-05-05T18:37:03.647Z,63.59
2023-05-05T18:42:05.809Z,63.89
2023-05-05T18:47:08.157Z,63.82
2023-05-05T18:52:10.171Z,64.73
2023-05-05T18:57:11.861Z,65.01
2023-05-05T19:02:13.519Z,65.08
2023-05-05T19:07:27.660Z,65.31
2023-05-05T19:12:33.452Z,65.72
2023-05-05T19:17:35.116Z,65.88
2023-05-05T19:22:36.786Z,66.61
2023-05-05T19:27:38.795Z,67.08
2023-05-05T19:32:40.620Z,67.38
2023-05-05T19:37:42.273Z,67.92
2023-05-05T19:42:43.884Z,68.27
2023-05-05T19:47:46.651Z,68.87
2023-05-05T19:52:48.938Z,69.46
2023-05-05T19:57:50.643Z,69.54
2023-05-05T20:02:52.518Z,70.11
2023-05-05T20:07:54.245Z,70.84
2023-05-05T20:12:56.108Z,71.14
2023-05-05T20:17:57.922Z,71.34
2023-05-05T20:22:59.598Z,72.54
2023-05-05T20:28:01.427Z,72.52
2023-05-05T20:33:03.321Z,73.05
2023-05-05T20:38:05.308Z,73.37
2023-05-05T20:43:06.929Z,73.46
2023-05-05T20:48:11.085Z,74.04
2023-05-05T20:53:16.070Z,73.76
2023-05-05T20:58:17.913Z,74.10
2023-05-05T21:03:19.552Z,74.61
2023-05-05T21:08:21.234Z,74.68
2023-05-05T21:13:23.193Z,75.19
2023-05-05T21:18:27.214Z,75.15
2023-05-05T21:23:28.849Z,75.13
2023-05-05T21:28:30.549Z,74.98
2023-05-05T21:33:32.171Z,75.17
2023-05-05T21:38:34.131Z,74.80
2023-05-05T21:43:35.787Z,75.44
2023-05-05T21:48:39.005Z,75.44
2023-05-05T21:53:40.907Z,76.16
2023-05-05T21:58:42.727Z,75.78
2023-05-05T22:03:44.459Z,76.29
2023-05-05T22:08:50.314Z,76.53
2023-05-05T22:13:51.940Z,76.22
2023-05-05T22:18:53.588Z,76.55
2023-05-05T22:23:55.180Z,76.99
2023-05-05T22:28:57.079Z,77.24
2023-05-05T22:33:59.048Z,81.27
2023-05-05T22:39:00.995Z,79.04
2023-05-05T22:44:02.682Z,79.00
2023-05-05T22:49:04.599Z,78.88
2023-05-05T22:54:06.351Z,79.73
2023-05-05T22:59:08.170Z,80.72
2023-05-05T23:04:10.459Z,80.64
2023-05-05T23:09:12.746Z,80.54
2023-05-05T23:14:14.438Z,80.36
2023-05-05T23:19:16.028Z,79.70
2023-05-05T23:24:17.629Z,80.28
2023-05-05T23:29:19.716Z,80.49
2023-05-05T23:34:21.379Z,80.75
2023-05-05T23:39:22.978Z,80.97
2023-05-05T23:44:24.858Z,80.87
2023-05-05T23:49:26.569Z,81.18
2023-05-05T23:54:28.150Z,80.93
2023-05-05T23:59:30.102Z,81.34
